createdAt,value
2022-12-25T00:02:09.404Z,94.27
2022-12-25T00:04:38.948Z,94.54
2022-12-25T00:07:08.496Z,94.80
2022-12-25T00:09:38.552Z,95.24
2022-12-25T00:12:08.134Z,95.41
2022-12-25T00:14:37.880Z,95.57
2022-12-25T00:17:07.446Z,95.87
2022-12-25T00:19:36.985Z,96.10
2022-12-25T00:22:06.544Z,95.85
2022-12-25T00:24:36.143Z,95.47
2022-12-25T00:27:05.742Z,95.61
2022-12-25T00:29:35.826Z,96.05
2022-12-25T00:32:05.613Z,96.45
2022-12-25T00:34:35.781Z,97.14
2022-12-25T00:37:05.368Z,97.48
2022-12-25T00:39:34.911Z,97.65
2022-12-25T00:42:22.707Z,97.94
2022-12-25T00:44:53.276Z,98.02
2022-12-25T00:47:22.901Z,98.10
2022-12-25T00:49:52.476Z,98.05
2022-12-25T00:52:22.095Z,98.14
2022-12-25T00:54:51.699Z,98.34
2022-12-25T00:57:21.497Z,98.35
2022-12-25T00:59:51.488Z,98.24
2022-12-25T01:02:27.129Z,98.59
2022-12-25T01:04:58.269Z,98.60
2022-12-25T01:07:29.078Z,98.67
2022-12-25T01:10:17.303Z,98.32
2022-12-25T01:12:47.430Z,98.64
2022-12-25T01:15:17.069Z,98.72
2022-12-25T01:17:47.036Z,98.96
2022-12-25T01:20:18.169Z,99.08
2022-12-25T01:22:48.239Z,99.02
2022-12-25T01:25:18.241Z,98.78
2022-12-25T01:27:47.780Z,98.90
2022-12-25T01:30:17.373Z,99.04
2022-12-25T01:32:47.031Z,99.20
2022-12-25T01:35:16.744Z,99.32
2022-12-25T01:37:46.673Z,99.47
2022-12-25T01:40:16.213Z,99.80
2022-12-25T01:42:46.261Z,99.94
2022-12-25T01:45:21.687Z,99.99
2022-12-25T01:47:52.285Z,99.99
2022-12-25T01:50:22.698Z,99.99
2022-12-25T01:52:53.092Z,99.99
2022-12-25T01:55:24.291Z,99.99
2022-12-25T01:57:54.133Z,99.99
2022-12-25T02:00:24.107Z,99.99
2022-12-25T02:02:54.236Z,99.99
2022-12-25T02:05:30.893Z,99.99
2022-12-25T02:08:05.608Z,99.99
2022-12-25T02:10:35.421Z,99.99
2022-12-25T02:13:05.374Z,99.99
2022-12-25T02:16:31.143Z,99.99
2022-12-25T02:19:11.163Z,99.99
2022-12-25T02:22:12.189Z,99.99
2022-12-25T02:25:09.941Z,99.99
2022-12-25T02:28:09.122Z,99.99
2022-12-25T02:30:48.084Z,99.99
2022-12-25T02:33:51.124Z,99.99
2022-12-25T02:36:27.206Z,99.99
2022-12-25T02:39:20.927Z,99.99
2022-12-25T02:41:56.215Z,99.99
2022-12-25T02:44:46.044Z,99.99
2022-12-25T02:53:51.898Z,99.99
2022-12-25T02:56:42.311Z,99.99
2022-12-25T02:59:31.777Z,99.99
2022-12-25T03:02:20.576Z,99.99
2022-12-25T03:05:11.093Z,99.99
2022-12-25T03:07:43.854Z,99.99
2022-12-25T03:10:34.448Z,99.99
2022-12-25T03:13:15.737Z,99.99
2022-12-25T03:16:04.792Z,99.99
2022-12-25T03:18:36.873Z,99.99
2022-12-25T03:21:25.789Z,99.99
2022-12-25T03:24:19.526Z,99.99
2022-12-25T03:26:59.068Z,99.99
2022-12-25T03:29:53.071Z,99.99
2022-12-25T03:32:29.291Z,99.99
2022-12-25T03:35:25.268Z,99.99
2022-12-25T03:38:49.372Z,99.99
2022-12-25T03:42:02.567Z,99.99
2022-12-25T03:45:37.859Z,99.99
2022-12-25T03:48:28.259Z,99.99
2022-12-25T03:51:29.652Z,99.99
2022-12-25T03:54:25.699Z,99.99
2022-12-25T03:57:15.321Z,99.99
2022-12-25T04:00:03.250Z,99.99
2022-12-25T04:02:57.455Z,99.99
2022-12-25T04:05:46.061Z,99.99
2022-12-25T04:08:34.306Z,99.99
2022-12-25T04:11:22.464Z,99.99
2022-12-25T04:14:10.816Z,99.99
2022-12-25T04:16:58.986Z,99.99
2022-12-25T04:19:47.494Z,99.99
2022-12-25T04:22:36.111Z,99.99
2022-12-25T04:25:24.819Z,99.99
2022-12-25T04:28:13.453Z,99.99
2022-12-25T04:31:01.989Z,99.99
2022-12-25T04:33:49.708Z,99.99
2022-12-25T04:36:19.768Z,99.99
2022-12-25T04:38:49.689Z,99.99
2022-12-25T04:41:19.613Z,99.99
2022-12-25T04:43:49.131Z,99.99
2022-12-25T04:46:18.797Z,99.99
2022-12-25T04:48:48.575Z,99.99
2022-12-25T04:51:23.616Z,99.99
2022-12-25T04:53:54.958Z,99.99
2022-12-25T04:56:24.910Z,99.99
2022-12-25T04:58:54.544Z,99.99
2022-12-25T05:01:24.578Z,99.99
2022-12-25T05:03:54.509Z,99.99
2022-12-25T05:06:24.148Z,99.99
2022-12-25T05:08:54.086Z,99.99
2022-12-25T05:11:23.668Z,99.99
2022-12-25T05:13:53.209Z,99.99
2022-12-25T05:16:23.004Z,99.99
2022-12-25T05:18:53.560Z,99.99
2022-12-25T05:21:23.407Z,99.99
2022-12-25T05:23:54.007Z,99.99
2022-12-25T05:26:26.643Z,99.99
2022-12-25T05:28:56.488Z,99.99
2022-12-25T05:31:26.105Z,99.99
2022-12-25T05:33:55.724Z,99.99
2022-12-25T05:36:25.276Z,99.99
2022-12-25T05:38:54.972Z,99.99
2022-12-25T05:41:27.891Z,99.99
2022-12-25T05:44:02.127Z,99.99
2022-12-25T05:46:31.764Z,99.99
2022-12-25T05:49:01.288Z,99.99
2022-12-25T05:51:31.935Z,99.99
2022-12-25T05:54:01.749Z,99.99
2022-12-25T05:56:31.663Z,99.99
2022-12-25T05:59:01.220Z,99.99
2022-12-25T06:01:30.893Z,99.99
2022-12-25T06:04:00.660Z,99.99
2022-12-25T06:06:30.229Z,99.99
2022-12-25T06:08:59.804Z,99.99
2022-12-25T06:11:29.393Z,99.99
2022-12-25T06:13:59.849Z,99.99
2022-12-25T06:16:35.577Z,99.99
2022-12-25T06:19:08.310Z,99.99
2022-12-25T06:21:38.360Z,99.99
2022-12-25T06:24:08.243Z,99.99
2022-12-25T06:26:37.915Z,99.99
2022-12-25T06:29:07.543Z,99.99
2022-12-25T06:31:37.564Z,99.99
2022-12-25T06:34:07.209Z,99.99
2022-12-25T06:36:39.530Z,99.99
2022-12-25T06:39:09.455Z,99.99
2022-12-25T06:41:39.212Z,99.99
2022-12-25T06:44:08.890Z,99.99
2022-12-25T06:46:38.789Z,99.99
2022-12-25T06:49:08.621Z,99.99
2022-12-25T06:51:38.341Z,99.99
2022-12-25T06:54:10.666Z,99.99
2022-12-25T06:56:41.229Z,99.99
2022-12-25T06:59:13.116Z,99.99
2022-12-25T07:01:53.701Z,99.99
2022-12-25T07:04:23.625Z,99.99
2022-12-25T07:06:53.711Z,99.99
2022-12-25T07:09:23.606Z,99.99
2022-12-25T07:11:53.212Z,99.99
2022-12-25T07:14:24.793Z,99.99
2022-12-25T07:16:54.882Z,99.99
2022-12-25T07:19:24.498Z,99.99
2022-12-25T07:21:54.208Z,99.99
2022-12-25T07:24:25.128Z,99.99
2022-12-25T07:26:55.233Z,99.99
2022-12-25T07:29:24.759Z,99.99
2022-12-25T07:31:54.380Z,99.99
2022-12-25T07:34:25.189Z,99.99
2022-12-25T07:36:57.101Z,99.99
2022-12-25T07:39:26.793Z,99.99
2022-12-25T07:41:56.314Z,99.99
2022-12-25T07:44:29.453Z,99.99
2022-12-25T07:46:59.932Z,99.99
2022-12-25T07:49:29.688Z,99.99
2022-12-25T07:51:59.298Z,99.99
2022-12-25T07:54:28.908Z,99.99
2022-12-25T07:56:58.425Z,99.99
2022-12-25T07:59:29.284Z,99.99
2022-12-25T08:01:59.447Z,99.99
2022-12-25T08:04:29.089Z,99.99
2022-12-25T08:06:58.632Z,99.99
2022-12-25T08:09:28.165Z,99.99
2022-12-25T08:11:57.697Z,99.99
2022-12-25T08:14:27.531Z,99.99
2022-12-25T08:16:57.058Z,99.99
2022-12-25T08:19:26.701Z,99.99
2022-12-25T08:21:56.602Z,99.99
2022-12-25T08:24:27.274Z,99.99
2022-12-25T08:26:57.198Z,99.99
2022-12-25T08:29:26.849Z,99.99
2022-12-25T08:31:56.981Z,99.99
2022-12-25T08:34:26.539Z,99.99
2022-12-25T08:36:56.390Z,99.99
2022-12-25T08:39:26.163Z,99.99
2022-12-25T08:41:55.645Z,99.99
2022-12-25T08:44:25.161Z,99.99
2022-12-25T08:46:54.946Z,99.99
2022-12-25T08:49:24.521Z,99.99
2022-12-25T08:51:54.280Z,99.99
2022-12-25T08:54:23.785Z,99.99
2022-12-25T08:56:57.275Z,99.99
2022-12-25T08:59:32.395Z,99.99
2022-12-25T09:02:02.298Z,99.99
2022-12-25T09:04:31.876Z,99.99
2022-12-25T09:07:01.401Z,99.99
2022-12-25T09:09:30.977Z,99.99
2022-12-25T09:12:00.491Z,99.99
2022-12-25T09:14:30.415Z,99.99
2022-12-25T09:16:59.947Z,99.99
2022-12-25T09:19:29.801Z,99.99
2022-12-25T09:21:59.447Z,99.99
2022-12-25T09:24:29.196Z,99.99
2022-12-25T09:26:58.719Z,99.99
2022-12-25T09:29:28.218Z,99.99
2022-12-25T09:31:58.045Z,99.99
2022-12-25T09:34:27.591Z,99.99
2022-12-25T09:36:57.317Z,99.99
2022-12-25T09:39:26.854Z,99.99
2022-12-25T09:42:18.432Z,99.99
2022-12-25T09:44:55.036Z,99.99
2022-12-25T09:47:33.654Z,99.99
2022-12-25T09:50:14.333Z,99.99
2022-12-25T09:53:05.900Z,99.99
2022-12-25T09:55:40.011Z,99.99
2022-12-25T09:58:14.608Z,99.99
2022-12-25T10:00:54.801Z,99.99
2022-12-25T10:04:03.532Z,99.99
2022-12-25T10:07:10.371Z,99.99
2022-12-25T10:09:58.409Z,99.99
2022-12-25T10:12:37.737Z,99.99
2022-12-25T10:15:16.731Z,99.99
2022-12-25T10:17:49.189Z,99.99
2022-12-25T10:20:18.827Z,99.99
2022-12-25T10:22:53.134Z,99.99
2022-12-25T10:25:25.681Z,99.99
2022-12-25T10:28:12.667Z,98.88
2022-12-25T10:30:46.267Z,98.64
2022-12-25T10:33:17.408Z,97.57
2022-12-25T10:35:48.930Z,96.68
2022-12-25T10:38:22.230Z,96.06
2022-12-25T10:41:28.602Z,97.37
2022-12-25T10:43:59.655Z,97.14
2022-12-25T10:46:32.084Z,95.84
2022-12-25T10:49:04.240Z,94.88
2022-12-25T10:51:33.698Z,95.61
2022-12-25T10:54:27.352Z,94.81
2022-12-25T10:57:06.276Z,92.88
2022-12-25T10:59:59.924Z,92.50
2022-12-25T11:02:32.220Z,92.22
2022-12-25T11:05:09.710Z,92.93
2022-12-25T11:07:52.818Z,92.89
2022-12-25T11:10:30.107Z,90.92
2022-12-25T11:13:01.350Z,90.80
2022-12-25T11:15:37.621Z,90.36
2022-12-25T11:18:25.449Z,91.42
2022-12-25T11:20:58.394Z,90.61
2022-12-25T11:23:31.257Z,90.63
2022-12-25T11:26:03.566Z,90.44
2022-12-25T11:28:36.872Z,90.35
2022-12-25T11:31:21.687Z,90.38
2022-12-25T11:34:29.849Z,89.95
2022-12-25T11:37:01.603Z,89.72
2022-12-25T11:39:35.734Z,89.57
2022-12-25T11:42:33.428Z,89.17
2022-12-25T11:45:18.222Z,89.29
2022-12-25T11:47:57.042Z,88.99
2022-12-25T11:50:36.087Z,88.18
2022-12-25T11:53:11.278Z,88.04
2022-12-25T11:55:50.597Z,86.96
2022-12-25T11:58:37.726Z,87.75
2022-12-25T12:01:31.268Z,87.60
2022-12-25T12:04:08.490Z,85.57
2022-12-25T12:06:53.449Z,84.51
2022-12-25T12:09:22.898Z,86.78
2022-12-25T12:12:10.537Z,85.16
2022-12-25T12:15:10.046Z,84.84
2022-12-25T12:17:39.820Z,81.19
2022-12-25T12:20:15.436Z,79.30
2022-12-25T12:22:51.828Z,78.98
2022-12-25T12:25:22.805Z,78.06
2022-12-25T12:28:05.395Z,76.31
2022-12-25T12:30:37.122Z,75.07
2022-12-25T12:33:09.155Z,75.25
2022-12-25T12:35:41.729Z,71.16
2022-12-25T12:38:20.713Z,71.89
2022-12-25T12:40:55.431Z,71.05
2022-12-25T12:43:43.016Z,73.08
2022-12-25T12:46:31.373Z,74.27
2022-12-25T12:49:21.233Z,75.31
2022-12-25T12:51:52.123Z,76.51
2022-12-25T12:54:29.587Z,77.07
2022-12-25T12:57:03.591Z,78.00
2022-12-25T12:59:42.179Z,78.29
2022-12-25T13:02:58.383Z,79.18
2022-12-25T13:06:13.107Z,79.09
2022-12-25T13:09:20.660Z,78.30
2022-12-25T13:11:52.151Z,76.20
2022-12-25T13:14:24.986Z,72.87
2022-12-25T13:16:56.159Z,74.13
2022-12-25T13:19:28.716Z,74.60
2022-12-25T13:22:02.689Z,74.91
2022-12-25T13:24:35.234Z,73.08
2022-12-25T13:27:27.123Z,76.44
2022-12-25T13:29:57.852Z,74.43
2022-12-25T13:32:33.723Z,74.55
2022-12-25T13:35:03.949Z,77.09
2022-12-25T13:37:33.836Z,75.81
2022-12-25T13:40:06.486Z,75.30
2022-12-25T13:42:43.250Z,74.93
2022-12-25T13:45:16.723Z,75.09
2022-12-25T13:47:54.686Z,74.77
2022-12-25T13:50:32.192Z,75.82
2022-12-25T13:53:19.232Z,77.41
2022-12-25T13:55:53.652Z,75.19
2022-12-25T13:58:27.902Z,73.93
2022-12-25T14:01:00.209Z,72.78
2022-12-25T14:03:41.978Z,71.87
2022-12-25T14:06:26.877Z,73.28
2022-12-25T14:08:59.460Z,74.35
2022-12-25T14:11:31.406Z,73.42
2022-12-25T14:14:09.494Z,72.90
2022-12-25T14:16:44.490Z,69.97
2022-12-25T14:19:35.321Z,70.42
2022-12-25T14:22:22.255Z,67.85
2022-12-25T14:24:52.289Z,66.03
2022-12-25T14:27:33.590Z,67.57
2022-12-25T14:30:04.050Z,67.64
2022-12-25T14:32:42.365Z,67.52
2022-12-25T14:35:19.748Z,66.22
2022-12-25T14:38:02.567Z,66.00
2022-12-25T14:40:35.239Z,65.63
2022-12-25T14:43:07.475Z,66.05
2022-12-25T14:45:42.463Z,67.86
2022-12-25T14:48:25.445Z,67.90
2022-12-25T14:51:05.407Z,68.07
2022-12-25T14:53:40.657Z,68.34
2022-12-25T14:56:11.482Z,69.14
2022-12-25T14:58:51.030Z,69.86
2022-12-25T15:01:37.783Z,71.94
2022-12-25T15:04:13.727Z,69.21
2022-12-25T15:06:57.900Z,69.90
2022-12-25T15:09:30.940Z,70.69
2022-12-25T15:12:01.198Z,68.47
2022-12-25T15:14:32.599Z,68.79
2022-12-25T15:17:03.356Z,69.12
2022-12-25T15:19:40.134Z,69.17
2022-12-25T15:22:14.172Z,67.76
2022-12-25T15:24:43.867Z,67.31
2022-12-25T15:27:22.416Z,66.92
2022-12-25T15:32:43.953Z,61.73
2022-12-25T15:35:23.695Z,60.32
2022-12-25T15:37:53.688Z,60.99
2022-12-25T15:40:23.614Z,63.04
2022-12-25T15:42:56.787Z,63.45
2022-12-25T15:45:29.277Z,62.74
2022-12-25T15:47:59.546Z,61.81
2022-12-25T15:50:31.289Z,62.52
2022-12-25T15:53:01.447Z,63.21
2022-12-25T15:55:31.314Z,64.00
2022-12-25T15:58:00.841Z,64.04
2022-12-25T16:00:30.446Z,63.23
2022-12-25T16:03:01.148Z,61.41
2022-12-25T16:05:31.181Z,60.30
2022-12-25T16:08:01.216Z,59.63
2022-12-25T16:10:36.630Z,60.15
2022-12-25T16:13:08.475Z,59.78
2022-12-25T16:15:38.043Z,59.07
2022-12-25T16:18:08.417Z,59.05
2022-12-25T16:20:38.468Z,58.60
2022-12-25T16:23:08.019Z,58.89
2022-12-25T16:25:37.570Z,57.84
2022-12-25T16:28:10.707Z,56.80
2022-12-25T16:30:41.343Z,58.63
2022-12-25T16:33:12.519Z,63.45
2022-12-25T16:35:42.222Z,64.05
2022-12-25T16:38:12.808Z,65.89
2022-12-25T16:40:42.781Z,64.11
2022-12-25T16:43:12.541Z,65.85
2022-12-25T16:45:42.153Z,64.18
2022-12-25T16:48:13.602Z,64.16
2022-12-25T16:50:43.782Z,67.57
2022-12-25T16:53:17.036Z,66.17
2022-12-25T16:55:46.932Z,66.24
2022-12-25T16:58:16.916Z,66.04
2022-12-25T17:00:49.477Z,65.13
2022-12-25T17:03:19.876Z,62.71
2022-12-25T17:05:49.766Z,61.75
2022-12-25T17:08:19.514Z,63.76
2022-12-25T17:10:49.030Z,66.06
2022-12-25T17:13:18.606Z,65.61
2022-12-25T17:15:50.652Z,65.65
2022-12-25T17:18:23.260Z,64.91
2022-12-25T17:20:56.025Z,64.26
2022-12-25T17:23:25.891Z,65.41
2022-12-25T17:25:55.403Z,66.65
2022-12-25T17:28:24.997Z,66.51
2022-12-25T17:30:55.104Z,62.71
2022-12-25T17:33:24.923Z,59.05
2022-12-25T17:35:57.341Z,63.04
2022-12-25T17:38:33.009Z,64.22
2022-12-25T17:41:06.612Z,62.46
2022-12-25T17:43:38.648Z,63.02
2022-12-25T17:46:20.439Z,63.22
2022-12-25T17:48:51.262Z,62.50
2022-12-25T17:51:23.506Z,62.04
2022-12-25T17:53:56.571Z,60.85
2022-12-25T17:56:27.145Z,61.58
2022-12-25T17:59:00.923Z,60.62
2022-12-25T18:01:31.230Z,62.77
2022-12-25T18:04:01.931Z,64.71
2022-12-25T18:06:31.981Z,64.52
2022-12-25T18:09:01.524Z,63.63
2022-12-25T18:11:37.016Z,63.24
2022-12-25T18:14:10.325Z,62.73
2022-12-25T18:16:43.326Z,63.11
2022-12-25T18:19:15.408Z,62.12
2022-12-25T18:21:45.451Z,62.78
2022-12-25T18:24:15.963Z,66.06
2022-12-25T18:26:46.713Z,66.91
2022-12-25T18:29:16.730Z,68.29
2022-12-25T18:31:46.357Z,68.75
2022-12-25T18:34:16.008Z,67.42
2022-12-25T18:36:46.033Z,68.48
2022-12-25T18:39:15.592Z,68.87
2022-12-25T18:42:03.540Z,67.31
2022-12-25T18:44:34.680Z,69.23
2022-12-25T18:47:04.354Z,69.05
2022-12-25T18:49:34.641Z,69.49
2022-12-25T18:52:50.325Z,68.60
2022-12-25T18:54:56.693Z,64.35
2022-12-25T18:57:26.738Z,65.16
2022-12-25T18:59:56.312Z,63.85
2022-12-25T19:02:26.399Z,63.34
2022-12-25T19:04:57.143Z,62.72
2022-12-25T19:07:27.323Z,64.30
2022-12-25T19:09:56.880Z,64.12
2022-12-25T19:12:26.459Z,62.78
2022-12-25T19:14:56.091Z,61.75
2022-12-25T19:17:31.513Z,61.54
2022-12-25T19:20:02.421Z,62.80
2022-12-25T19:22:31.977Z,63.94
2022-12-25T19:25:01.794Z,63.72
2022-12-25T19:27:31.399Z,63.45
2022-12-25T19:30:01.308Z,63.95
2022-12-25T19:32:30.889Z,64.71
2022-12-25T19:35:05.405Z,64.81
2022-12-25T19:37:37.260Z,66.13
2022-12-25T19:40:08.054Z,66.65
2022-12-25T19:42:38.528Z,66.72
2022-12-25T19:45:08.709Z,68.59
2022-12-25T19:47:38.255Z,68.75
2022-12-25T19:50:08.418Z,70.82
2022-12-25T19:52:38.178Z,72.65
2022-12-25T19:55:08.262Z,73.19
2022-12-25T19:57:38.216Z,73.81
2022-12-25T20:00:08.527Z,76.02
2022-12-25T20:02:43.251Z,75.59
2022-12-25T20:05:13.881Z,74.50
2022-12-25T20:07:43.809Z,75.76
2022-12-25T20:10:13.426Z,78.13
2022-12-25T20:12:42.992Z,78.82
2022-12-25T20:15:13.913Z,79.29
2022-12-25T20:17:44.313Z,79.82
2022-12-25T20:20:14.768Z,79.39
2022-12-25T20:22:44.316Z,80.55
2022-12-25T20:25:15.043Z,82.06
2022-12-25T20:27:45.112Z,81.73
2022-12-25T20:30:16.539Z,80.76
2022-12-25T20:32:50.356Z,81.64
2022-12-25T20:35:20.663Z,80.41
2022-12-25T20:37:50.628Z,81.31
2022-12-25T20:40:20.770Z,81.60
2022-12-25T20:42:50.323Z,80.84
2022-12-25T20:45:19.864Z,81.00
2022-12-25T20:47:49.487Z,80.76
2022-12-25T20:50:19.328Z,80.72
2022-12-25T20:52:49.145Z,80.36
2022-12-25T20:55:18.758Z,81.18
2022-12-25T20:57:48.322Z,81.31
2022-12-25T21:00:17.975Z,81.54
2022-12-25T21:02:48.214Z,81.76
2022-12-25T21:05:18.908Z,81.87
2022-12-25T21:07:49.062Z,81.35
2022-12-25T21:10:18.829Z,81.01
2022-12-25T21:12:48.379Z,82.04
2022-12-25T21:15:18.214Z,83.73
2022-12-25T21:17:47.992Z,85.70
2022-12-25T21:20:17.831Z,86.95
2022-12-25T21:22:47.467Z,86.95
2022-12-25T21:25:17.075Z,87.83
2022-12-25T21:27:46.615Z,88.32
2022-12-25T21:30:16.238Z,88.26
2022-12-25T21:33:04.594Z,88.49
2022-12-25T21:35:38.813Z,88.51
2022-12-25T21:38:08.615Z,88.47
2022-12-25T21:40:39.141Z,89.40
2022-12-25T21:43:09.280Z,88.32
2022-12-25T21:45:39.057Z,88.93
2022-12-25T21:48:08.839Z,89.39
2022-12-25T21:50:57.571Z,89.92
2022-12-25T21:53:27.603Z,90.03
2022-12-25T21:56:03.573Z,91.24
2022-12-25T21:58:34.332Z,89.72
2022-12-25T22:01:07.047Z,91.29
2022-12-25T22:03:37.080Z,92.01
2022-12-25T22:06:25.987Z,92.86
2022-12-25T22:08:55.751Z,94.26
2022-12-25T22:11:45.037Z,93.91
2022-12-25T22:14:52.072Z,95.39
2022-12-25T22:17:53.299Z,95.74
2022-12-25T22:20:31.134Z,95.55
2022-12-25T22:23:00.883Z,94.92
2022-12-25T22:25:31.286Z,95.24
2022-12-25T22:28:01.504Z,94.85
2022-12-25T22:30:31.595Z,95.24
2022-12-25T22:33:01.155Z,95.30
2022-12-25T22:35:31.638Z,95.55
2022-12-25T22:38:01.667Z,95.69
2022-12-25T22:40:31.458Z,95.57
2022-12-25T22:43:01.016Z,96.03
2022-12-25T22:45:30.594Z,95.07
2022-12-25T22:48:00.121Z,96.00
2022-12-25T22:50:29.904Z,96.04
2022-12-25T22:52:59.589Z,96.56
2022-12-25T22:55:29.518Z,95.41
2022-12-25T22:57:59.201Z,96.59
2022-12-25T23:00:28.759Z,97.03
2022-12-25T23:02:58.712Z,96.94
2022-12-25T23:05:28.379Z,96.44
2022-12-25T23:07:58.388Z,96.36
2022-12-25T23:10:28.967Z,97.39
2022-12-25T23:13:16.897Z,97.36
2022-12-25T23:15:49.548Z,98.64
2022-12-25T23:18:38.158Z,98.89
2022-12-25T23:21:26.350Z,98.85
2022-12-25T23:24:14.093Z,99.24
2022-12-25T23:26:43.950Z,99.34
2022-12-25T23:29:31.807Z,98.44
2022-12-25T23:32:01.948Z,99.66
2022-12-25T23:34:31.570Z,99.99
2022-12-25T23:37:01.150Z,99.98
2022-12-25T23:39:30.819Z,99.99
2022-12-25T23:42:01.349Z,99.99
2022-12-25T23:44:31.645Z,99.99
2022-12-25T23:47:01.609Z,99.99
2022-12-25T23:49:31.339Z,99.99
2022-12-25T23:52:00.889Z,99.99
2022-12-25T23:54:32.850Z,99.99
2022-12-25T23:57:02.959Z,99.99
2022-12-25T23:59:33.185Z,99.99
